createdAt,value
2019-04-30T00:00:46.756Z,28.20
2019-04-30T00:01:48.677Z,27.90
2019-04-30T00:02:46.761Z,28.40
2019-04-30T00:03:50.517Z,28.90
2019-04-30T00:04:46.781Z,29.50
2019-04-30T00:05:49.410Z,28.20
2019-04-30T00:06:46.798Z,29.10
2019-04-30T00:07:50.810Z,29.80
2019-04-30T00:08:46.810Z,28.80
2019-04-30T00:09:49.324Z,28.60
2019-04-30T00:10:46.832Z,29.90
2019-04-30T00:11:50.665Z,30.20
2019-04-30T00:12:46.844Z,29.40
2019-04-30T00:13:50.220Z,30.20
2019-04-30T00:14:46.849Z,30.60
2019-04-30T00:15:48.037Z,29.60
2019-04-30T00:16:46.868Z,30.60
2019-04-30T00:17:52.679Z,29.50
2019-04-30T00:18:57.059Z,29.60
2019-04-30T00:19:50.562Z,29.60
2019-04-30T00:20:47.111Z,30.10
2019-04-30T00:21:48.289Z,29.20
2019-04-30T00:22:50.339Z,30.60
2019-04-30T00:23:46.913Z,29.60
2019-04-30T00:24:49.896Z,30.60
2019-04-30T00:25:47.004Z,30.40
2019-04-30T00:26:52.020Z,29.90
2019-04-30T00:27:48.100Z,29.80
2019-04-30T00:28:47.878Z,29.40
2019-04-30T00:29:46.959Z,29.60
2019-04-30T00:30:47.842Z,29.20
2019-04-30T00:31:47.179Z,30.20
2019-04-30T00:32:47.266Z,30.40
2019-04-30T00:33:46.984Z,30.20
2019-04-30T00:34:46.993Z,30.00
2019-04-30T00:35:49.736Z,29.90
2019-04-30T00:36:47.010Z,30.80
2019-04-30T00:37:51.706Z,29.80
2019-04-30T00:38:47.020Z,30.60
2019-04-30T00:39:51.042Z,31.20
2019-04-30T00:40:47.053Z,30.80
2019-04-30T00:41:47.575Z,29.90
2019-04-30T00:42:47.055Z,28.90
2019-04-30T00:43:50.669Z,30.10
2019-04-30T00:44:47.067Z,30.70
2019-04-30T00:45:47.618Z,29.70
2019-04-30T00:46:47.998Z,28.80
2019-04-30T00:47:47.974Z,28.90
2019-04-30T00:48:47.083Z,29.80
2019-04-30T00:49:47.226Z,28.90
2019-04-30T00:50:47.094Z,29.70
2019-04-30T00:51:49.830Z,28.50
2019-04-30T00:52:47.115Z,27.80
2019-04-30T00:53:51.211Z,27.90
2019-04-30T00:54:47.121Z,29.20
2019-04-30T00:55:48.529Z,28.70
2019-04-30T00:56:47.141Z,28.00
2019-04-30T00:57:47.504Z,28.20
2019-04-30T00:58:47.155Z,29.10
2019-04-30T00:59:48.060Z,28.80
2019-04-30T01:00:47.200Z,27.10
2019-04-30T01:01:48.122Z,28.30
2019-04-30T01:02:47.168Z,27.80
2019-04-30T01:03:49.557Z,28.00
2019-04-30T01:04:47.199Z,27.10
2019-04-30T01:05:47.912Z,28.00
2019-04-30T01:06:47.207Z,27.50
2019-04-30T01:07:50.175Z,27.80
2019-04-30T01:08:47.218Z,26.70
2019-04-30T01:09:49.885Z,27.00
2019-04-30T01:10:47.295Z,27.00
2019-04-30T01:11:48.168Z,26.60
2019-04-30T01:12:50.131Z,25.60
2019-04-30T01:13:51.009Z,25.40
2019-04-30T01:14:47.259Z,26.00
2019-04-30T01:15:49.019Z,27.50
2019-04-30T01:16:49.230Z,26.10
2019-04-30T01:17:50.997Z,27.80
2019-04-30T01:18:49.060Z,26.40
2019-04-30T01:19:54.283Z,26.50
2019-04-30T01:20:48.729Z,26.30
2019-04-30T01:21:49.136Z,27.20
2019-04-30T01:22:48.700Z,26.60
2019-04-30T01:23:51.936Z,27.00
2019-04-30T01:24:49.514Z,26.80
2019-04-30T01:25:50.390Z,26.20
2019-04-30T01:26:48.607Z,28.00
2019-04-30T01:27:49.010Z,26.40
2019-04-30T01:28:49.377Z,27.10
2019-04-30T01:29:48.726Z,27.50
2019-04-30T01:30:49.424Z,27.10
2019-04-30T01:31:48.796Z,26.90
2019-04-30T01:32:52.110Z,27.40
2019-04-30T01:33:48.905Z,25.60
2019-04-30T01:34:49.853Z,27.80
2019-04-30T01:35:48.762Z,26.60
2019-04-30T01:36:51.032Z,27.10
2019-04-30T01:37:48.759Z,25.70
2019-04-30T01:38:51.007Z,27.00
2019-04-30T01:39:49.169Z,27.50
2019-04-30T01:40:50.602Z,27.60
2019-04-30T01:41:48.809Z,26.60
2019-04-30T01:42:48.525Z,27.80
2019-04-30T01:43:48.759Z,28.40
2019-04-30T01:44:50.462Z,29.10
2019-04-30T01:45:48.645Z,29.00
2019-04-30T01:46:51.344Z,29.90
2019-04-30T01:47:49.487Z,29.30
2019-04-30T01:48:50.826Z,30.20
2019-04-30T01:49:49.452Z,30.70
2019-04-30T01:50:48.853Z,29.60
2019-04-30T01:51:48.641Z,30.10
2019-04-30T01:52:49.370Z,30.30
2019-04-30T01:53:48.447Z,30.60
2019-04-30T01:54:49.062Z,31.10
2019-04-30T01:55:49.415Z,31.20
2019-04-30T01:56:47.556Z,31.40
2019-04-30T01:57:49.144Z,31.00
2019-04-30T01:58:49.077Z,31.00
2019-04-30T01:59:48.638Z,30.30
2019-04-30T02:00:49.323Z,31.20
2019-04-30T02:01:48.715Z,30.30
2019-04-30T02:02:49.481Z,29.60
2019-04-30T02:03:48.692Z,31.10
2019-04-30T02:04:49.192Z,30.00
2019-04-30T02:05:47.610Z,29.40
2019-04-30T02:06:49.329Z,30.30
2019-04-30T02:07:48.679Z,29.80
2019-04-30T02:08:49.282Z,28.60
2019-04-30T02:09:48.905Z,28.80
2019-04-30T02:10:49.194Z,29.40
2019-04-30T02:11:48.802Z,30.50
2019-04-30T02:12:49.325Z,28.90
2019-04-30T02:13:49.169Z,29.60
2019-04-30T02:14:49.431Z,29.70
2019-04-30T02:15:49.254Z,29.70
2019-04-30T02:16:49.330Z,30.80
2019-04-30T02:17:50.231Z,29.90
2019-04-30T02:18:49.495Z,29.50
2019-04-30T02:19:56.435Z,29.40
2019-04-30T02:20:49.506Z,30.10
2019-04-30T02:21:48.717Z,29.70
2019-04-30T02:22:48.652Z,30.60
2019-04-30T02:23:49.347Z,29.10
2019-04-30T02:24:48.595Z,29.50
2019-04-30T02:25:48.957Z,30.10
2019-04-30T02:26:48.497Z,30.90
2019-04-30T02:27:48.914Z,30.10
2019-04-30T02:28:49.521Z,28.90
2019-04-30T02:29:49.421Z,29.10
2019-04-30T02:30:50.391Z,29.20
2019-04-30T02:31:50.125Z,29.80
2019-04-30T02:32:49.572Z,29.40
2019-04-30T02:33:50.103Z,29.60
2019-04-30T02:34:49.777Z,31.10
2019-04-30T02:35:49.978Z,30.30
2019-04-30T02:36:49.943Z,31.40
2019-04-30T02:37:50.447Z,31.20
2019-04-30T02:38:49.411Z,31.20
2019-04-30T02:39:50.211Z,30.70
2019-04-30T02:40:49.905Z,31.30
2019-04-30T02:41:50.459Z,29.60
2019-04-30T02:42:49.738Z,30.20
2019-04-30T02:43:49.755Z,31.30
2019-04-30T02:44:50.294Z,30.20
2019-04-30T02:45:49.762Z,30.10
2019-04-30T02:46:50.328Z,31.40
2019-04-30T02:47:49.974Z,30.30
2019-04-30T02:48:50.331Z,30.00
2019-04-30T02:49:52.924Z,28.30
2019-04-30T02:50:49.157Z,29.30
2019-04-30T02:51:49.987Z,30.00
2019-04-30T02:52:50.422Z,30.70
2019-04-30T02:53:50.219Z,31.00
2019-04-30T02:54:49.989Z,30.30
2019-04-30T02:55:49.946Z,31.60
2019-04-30T02:56:50.421Z,31.10
2019-04-30T02:57:49.927Z,30.60
2019-04-30T02:58:50.201Z,31.20
2019-04-30T02:59:49.664Z,30.70
2019-04-30T03:00:49.575Z,29.90
2019-04-30T03:01:50.231Z,31.30
2019-04-30T03:02:50.273Z,30.20
2019-04-30T03:03:50.079Z,30.60
2019-04-30T03:04:50.138Z,28.80
2019-04-30T03:05:49.739Z,30.10
2019-04-30T03:06:50.232Z,30.20
2019-04-30T03:07:53.010Z,30.10
2019-04-30T03:08:50.694Z,30.40
2019-04-30T03:09:49.937Z,31.20
2019-04-30T03:10:49.976Z,31.50
2019-04-30T03:11:49.933Z,30.50
2019-04-30T03:12:49.959Z,29.90
2019-04-30T03:13:49.490Z,29.70
2019-04-30T03:14:50.218Z,30.40
2019-04-30T03:15:49.365Z,29.20
2019-04-30T03:16:52.506Z,29.30
2019-04-30T03:17:50.606Z,30.20
2019-04-30T03:18:49.935Z,29.80
2019-04-30T03:19:50.184Z,30.00
2019-04-30T03:20:49.726Z,29.10
2019-04-30T03:21:50.228Z,29.40
2019-04-30T03:22:51.083Z,30.50
2019-04-30T03:23:50.275Z,28.60
2019-04-30T03:24:50.164Z,29.50
2019-04-30T03:25:50.146Z,29.80
2019-04-30T03:26:49.979Z,28.30
2019-04-30T03:27:49.842Z,28.70
2019-04-30T03:28:49.396Z,28.70
2019-04-30T03:29:50.301Z,28.00
2019-04-30T03:30:56.152Z,29.00
2019-04-30T03:31:51.786Z,25.50
2019-04-30T03:32:56.040Z,27.60
2019-04-30T03:33:52.459Z,28.10
2019-04-30T03:34:51.711Z,29.80
2019-04-30T03:35:53.645Z,28.30
2019-04-30T03:36:50.407Z,28.30
2019-04-30T03:37:49.702Z,28.40
2019-04-30T03:38:50.101Z,28.60
2019-04-30T03:39:49.284Z,28.60
2019-04-30T03:40:50.256Z,28.70
2019-04-30T03:41:50.192Z,29.30
2019-04-30T03:42:49.438Z,27.50
2019-04-30T03:43:50.357Z,28.90
2019-04-30T03:44:49.608Z,29.10
2019-04-30T03:45:49.947Z,27.60
2019-04-30T03:46:49.838Z,28.40
2019-04-30T03:47:50.497Z,28.20
2019-04-30T03:48:50.395Z,28.50
2019-04-30T03:49:49.944Z,27.10
2019-04-30T03:50:53.252Z,27.10
2019-04-30T03:51:49.886Z,27.30
2019-04-30T03:52:50.372Z,27.30
2019-04-30T03:53:50.121Z,27.80
2019-04-30T03:54:49.422Z,27.80
2019-04-30T03:55:50.659Z,27.10
2019-04-30T03:56:50.139Z,28.70
2019-04-30T03:57:51.686Z,29.60
2019-04-30T03:58:50.353Z,27.40
2019-04-30T03:59:49.946Z,28.30
2019-04-30T04:00:50.253Z,27.30
2019-04-30T04:01:49.758Z,29.10
2019-04-30T04:02:50.209Z,27.60
2019-04-30T04:03:49.886Z,28.50
2019-04-30T04:04:49.477Z,28.70
2019-04-30T04:05:49.765Z,27.80
2019-04-30T04:06:49.268Z,28.20
2019-04-30T04:07:49.844Z,27.50
2019-04-30T04:08:49.080Z,27.80
2019-04-30T04:09:49.890Z,28.00
2019-04-30T04:10:50.246Z,26.90
2019-04-30T04:11:50.829Z,27.00
2019-04-30T04:12:49.852Z,27.00
2019-04-30T04:13:49.574Z,27.10
2019-04-30T04:14:50.742Z,27.20
2019-04-30T04:15:49.975Z,27.60
2019-04-30T04:16:50.739Z,27.90
2019-04-30T04:17:50.331Z,27.50
2019-04-30T04:18:50.160Z,28.10
2019-04-30T04:19:49.463Z,27.50
2019-04-30T04:20:52.027Z,27.90
2019-04-30T04:21:50.981Z,28.90
2019-04-30T04:22:49.717Z,27.70
2019-04-30T04:23:49.340Z,28.70
2019-04-30T04:24:50.352Z,28.50
2019-04-30T04:25:49.838Z,28.50
2019-04-30T04:26:50.209Z,27.60
2019-04-30T04:27:50.953Z,28.90
2019-04-30T04:28:49.609Z,28.40
2019-04-30T04:29:50.879Z,28.50
2019-04-30T04:30:50.531Z,28.50
2019-04-30T04:31:50.037Z,29.50
2019-04-30T04:32:50.125Z,29.20
2019-04-30T04:33:49.628Z,28.40
2019-04-30T04:34:50.567Z,29.00
2019-04-30T04:35:49.863Z,28.50
2019-04-30T04:36:50.466Z,30.20
2019-04-30T04:37:49.462Z,29.10
2019-04-30T04:38:50.738Z,28.20
2019-04-30T04:39:50.216Z,30.70
2019-04-30T04:40:50.164Z,29.60
2019-04-30T04:41:50.217Z,29.00
2019-04-30T04:42:49.266Z,30.20
2019-04-30T04:43:50.487Z,29.60
2019-04-30T04:44:50.080Z,29.30
2019-04-30T04:45:49.732Z,29.90
2019-04-30T04:46:50.418Z,29.80
2019-04-30T04:47:50.336Z,28.70
2019-04-30T04:48:49.449Z,29.60
2019-04-30T04:49:52.965Z,29.60
2019-04-30T04:50:50.134Z,30.50
2019-04-30T04:51:49.288Z,29.70
2019-04-30T04:52:49.628Z,29.80
2019-04-30T04:53:50.024Z,29.80
2019-04-30T04:54:50.598Z,30.40
2019-04-30T04:55:49.937Z,28.80
2019-04-30T04:56:52.987Z,30.10
2019-04-30T04:57:50.010Z,29.40
2019-04-30T04:58:50.244Z,30.00
2019-04-30T04:59:49.844Z,29.10
2019-04-30T05:00:49.437Z,29.80
2019-04-30T05:01:49.049Z,29.30
2019-04-30T05:02:49.746Z,29.60
2019-04-30T05:03:49.093Z,30.10
2019-04-30T05:04:49.200Z,30.10
2019-04-30T05:05:49.897Z,28.90
2019-04-30T05:06:49.866Z,28.90
2019-04-30T05:07:48.767Z,28.10
2019-04-30T05:08:49.331Z,30.70
2019-04-30T05:09:49.028Z,29.80
2019-04-30T05:10:49.485Z,29.30
2019-04-30T05:11:48.897Z,30.10
2019-04-30T05:12:50.632Z,30.70
2019-04-30T05:13:49.102Z,30.20
2019-04-30T05:14:48.812Z,29.10
2019-04-30T05:15:51.305Z,31.60
2019-04-30T05:16:48.943Z,28.70
2019-04-30T05:17:49.444Z,30.10
2019-04-30T05:18:48.933Z,29.60
2019-04-30T05:19:48.847Z,29.20
2019-04-30T05:20:49.113Z,29.50
2019-04-30T05:21:49.513Z,28.40
2019-04-30T05:22:49.019Z,28.40
2019-04-30T05:23:49.263Z,29.70
2019-04-30T05:24:48.952Z,28.70
2019-04-30T05:25:49.223Z,28.00
2019-04-30T05:26:48.953Z,27.70
2019-04-30T05:27:48.988Z,28.70
2019-04-30T05:28:52.717Z,27.50
2019-04-30T05:29:49.838Z,27.40
2019-04-30T05:30:49.412Z,28.50
2019-04-30T05:31:48.926Z,26.60
2019-04-30T05:32:50.709Z,27.50
2019-04-30T05:33:48.999Z,26.90
2019-04-30T05:34:49.677Z,27.10
2019-04-30T05:35:49.596Z,26.90
2019-04-30T05:36:49.116Z,27.10
2019-04-30T05:37:49.511Z,26.60
2019-04-30T05:38:48.975Z,26.00
2019-04-30T05:39:49.007Z,26.40
2019-04-30T05:40:49.598Z,23.30
2019-04-30T05:41:49.273Z,25.00
2019-04-30T05:42:49.647Z,25.50
2019-04-30T05:43:49.076Z,24.70
2019-04-30T05:44:49.671Z,25.20
2019-04-30T05:45:49.354Z,25.50
2019-04-30T05:46:49.431Z,24.50
2019-04-30T05:47:50.611Z,25.50
2019-04-30T05:48:49.483Z,24.40
2019-04-30T05:49:49.146Z,24.00
2019-04-30T05:50:51.781Z,24.30
2019-04-30T05:51:55.563Z,25.30
2019-04-30T05:52:49.403Z,25.60
2019-04-30T05:53:49.229Z,24.20
2019-04-30T05:54:49.083Z,24.70
2019-04-30T05:55:49.466Z,24.80
2019-04-30T05:56:49.387Z,25.00
2019-04-30T05:57:55.771Z,25.50
2019-04-30T05:58:49.511Z,24.60
2019-04-30T05:59:49.125Z,25.20
2019-04-30T06:00:49.981Z,24.70
2019-04-30T06:01:50.747Z,26.10
2019-04-30T06:02:49.756Z,25.80
2019-04-30T06:03:49.170Z,26.10
2019-04-30T06:04:49.188Z,24.90
2019-04-30T06:05:49.347Z,24.70
2019-04-30T06:06:49.192Z,23.50
2019-04-30T06:07:51.895Z,26.60
2019-04-30T06:08:49.192Z,24.70
2019-04-30T06:09:49.195Z,27.10
2019-04-30T06:10:51.726Z,25.40
2019-04-30T06:11:49.293Z,25.70
2019-04-30T06:12:49.422Z,25.00
2019-04-30T06:13:49.261Z,25.10
2019-04-30T06:14:51.767Z,24.00
2019-04-30T06:15:49.249Z,23.00
2019-04-30T06:16:51.606Z,23.90
2019-04-30T06:17:59.674Z,23.70
2019-04-30T06:18:49.275Z,24.60
2019-04-30T06:19:51.515Z,25.00
2019-04-30T06:20:49.431Z,24.50
2019-04-30T06:21:49.295Z,25.90
2019-04-30T06:22:51.993Z,24.20
2019-04-30T06:23:49.375Z,25.70
2019-04-30T06:24:49.566Z,27.80
2019-04-30T06:25:57.281Z,25.40
2019-04-30T06:26:49.426Z,26.60
2019-04-30T06:27:49.360Z,24.90
2019-04-30T06:28:49.735Z,25.90
2019-04-30T06:29:49.362Z,26.30
2019-04-30T06:30:49.497Z,26.20
2019-04-30T06:31:49.386Z,24.40
2019-04-30T06:32:49.682Z,24.60
2019-04-30T06:33:49.397Z,25.80
2019-04-30T06:34:49.936Z,25.40
2019-04-30T06:35:49.426Z,24.20
2019-04-30T06:36:53.322Z,25.00
2019-04-30T06:37:49.432Z,25.00
2019-04-30T06:38:49.435Z,24.10
2019-04-30T06:39:50.020Z,23.90
2019-04-30T06:40:49.452Z,24.70
2019-04-30T06:41:49.463Z,22.70
2019-04-30T06:42:49.681Z,25.00
2019-04-30T06:43:49.491Z,24.60
2019-04-30T06:44:49.631Z,25.30
2019-04-30T06:45:51.213Z,23.90
2019-04-30T06:46:49.506Z,24.90
2019-04-30T06:47:49.515Z,24.90
2019-04-30T06:48:51.002Z,24.70
2019-04-30T06:49:49.539Z,24.80
2019-04-30T06:50:49.532Z,24.40
2019-04-30T06:51:49.543Z,25.60
2019-04-30T06:52:56.762Z,24.80
2019-04-30T06:53:51.408Z,27.30
2019-04-30T06:54:49.935Z,24.70
2019-04-30T06:55:49.576Z,25.10
2019-04-30T06:56:49.603Z,26.40
2019-04-30T06:57:49.819Z,25.80
2019-04-30T06:58:52.404Z,24.90
2019-04-30T06:59:51.500Z,26.60
2019-04-30T07:00:49.828Z,28.10
2019-04-30T07:01:49.634Z,28.60
2019-04-30T07:02:49.642Z,27.30
2019-04-30T07:03:49.638Z,26.20
2019-04-30T07:04:49.653Z,29.30
2019-04-30T07:05:49.666Z,30.10
2019-04-30T07:06:50.636Z,29.60
2019-04-30T07:07:53.335Z,30.90
2019-04-30T07:08:55.749Z,30.90
2019-04-30T07:09:55.813Z,28.90
2019-04-30T07:10:55.733Z,29.80
2019-04-30T07:11:49.751Z,31.10
2019-04-30T07:12:49.745Z,31.40
2019-04-30T07:13:52.271Z,31.60
2019-04-30T07:14:49.752Z,31.60
2019-04-30T07:15:49.752Z,32.80
2019-04-30T07:16:49.763Z,33.10
2019-04-30T07:17:49.774Z,34.20
2019-04-30T07:18:49.780Z,32.00
2019-04-30T07:19:55.638Z,32.60
2019-04-30T07:20:49.795Z,33.20
2019-04-30T07:21:49.809Z,34.40
2019-04-30T07:22:59.091Z,33.40
2019-04-30T07:23:49.829Z,35.10
2019-04-30T07:24:49.936Z,34.90
2019-04-30T07:25:51.708Z,34.50
2019-04-30T07:26:49.875Z,35.60
2019-04-30T07:27:50.481Z,34.90
2019-04-30T07:28:54.902Z,35.60
2019-04-30T07:29:49.885Z,35.70
2019-04-30T07:31:07.175Z,33.10
2019-04-30T07:31:51.689Z,33.50
2019-04-30T07:32:49.905Z,34.10
2019-04-30T07:33:53.430Z,33.40
2019-04-30T07:34:49.937Z,32.90
2019-04-30T07:35:50.043Z,34.30
2019-04-30T07:37:10.392Z,33.20
2019-04-30T07:37:50.132Z,35.80
2019-04-30T07:38:56.292Z,34.60
2019-04-30T07:39:49.999Z,34.70
2019-04-30T07:40:50.093Z,35.40
2019-04-30T07:41:50.011Z,34.10
2019-04-30T07:42:50.018Z,35.70
2019-04-30T07:43:50.076Z,33.40
2019-04-30T07:44:50.299Z,33.30
2019-04-30T07:45:50.049Z,34.10
2019-04-30T07:46:50.058Z,34.20
2019-04-30T07:47:50.064Z,33.40
2019-04-30T07:48:50.333Z,33.60
2019-04-30T07:49:55.013Z,33.10
2019-04-30T07:50:52.043Z,33.50
2019-04-30T07:51:51.743Z,32.30
2019-04-30T07:53:01.613Z,31.60
2019-04-30T07:53:50.148Z,32.90
2019-04-30T07:54:51.955Z,31.80
2019-04-30T07:55:50.268Z,30.40
2019-04-30T07:56:50.841Z,30.70
2019-04-30T07:57:50.800Z,30.60
2019-04-30T07:58:50.583Z,29.90
2019-04-30T07:59:50.208Z,30.60
2019-04-30T08:00:53.311Z,30.10
2019-04-30T08:02:04.006Z,30.70
2019-04-30T08:02:50.574Z,30.70
2019-04-30T08:03:50.744Z,30.10
2019-04-30T08:04:51.103Z,31.00
2019-04-30T08:05:50.433Z,31.30
2019-04-30T08:06:50.399Z,45.10
2019-04-30T08:07:50.368Z,33.30
2019-04-30T08:08:51.802Z,31.50
2019-04-30T08:09:50.338Z,32.20
2019-04-30T08:10:51.039Z,30.60
2019-04-30T08:11:50.364Z,32.20
2019-04-30T08:12:51.217Z,32.90
2019-04-30T08:13:51.012Z,34.60
2019-04-30T08:14:50.403Z,33.40
2019-04-30T08:15:50.422Z,32.60
2019-04-30T08:16:51.100Z,34.30
2019-04-30T08:18:02.873Z,34.10
2019-04-30T08:18:50.468Z,32.60
2019-04-30T08:19:50.477Z,33.80
2019-04-30T08:20:50.496Z,31.00
2019-04-30T08:21:50.505Z,33.00
2019-04-30T08:22:50.574Z,32.30
2019-04-30T08:23:50.544Z,32.60
2019-04-30T08:24:50.559Z,31.40
2019-04-30T08:25:50.568Z,30.00
2019-04-30T08:26:50.583Z,30.80
2019-04-30T08:27:50.606Z,30.00
2019-04-30T08:28:50.613Z,29.40
2019-04-30T08:29:50.645Z,29.20
2019-04-30T08:30:50.656Z,29.50
2019-04-30T08:31:50.669Z,28.80
2019-04-30T08:32:50.681Z,28.80
2019-04-30T08:33:50.698Z,28.80
2019-04-30T08:34:50.713Z,27.90
2019-04-30T08:35:50.734Z,28.10
2019-04-30T08:36:51.476Z,28.60
2019-04-30T08:37:50.768Z,28.10
2019-04-30T08:38:50.777Z,28.50
2019-04-30T08:39:50.794Z,28.60
2019-04-30T08:40:56.074Z,27.60
2019-04-30T08:42:50.847Z,28.40
2019-04-30T08:43:50.853Z,28.70
2019-04-30T08:44:50.865Z,26.60
2019-04-30T08:45:50.896Z,28.30
2019-04-30T08:46:50.905Z,28.10
2019-04-30T08:47:50.924Z,28.80
2019-04-30T08:48:53.718Z,27.70
2019-04-30T08:49:50.958Z,29.10
2019-04-30T08:50:51.197Z,27.60
2019-04-30T08:51:51.261Z,27.00
2019-04-30T08:52:51.154Z,28.60
2019-04-30T08:53:51.021Z,28.20
2019-04-30T08:54:51.041Z,28.40
2019-04-30T08:55:51.047Z,28.40
2019-04-30T08:56:51.070Z,28.10
2019-04-30T08:57:51.085Z,28.30
2019-04-30T08:58:51.098Z,28.40
2019-04-30T08:59:51.121Z,27.70
2019-04-30T09:00:51.140Z,28.20
2019-04-30T09:01:51.152Z,25.60
2019-04-30T09:02:51.190Z,25.60
2019-04-30T09:03:51.452Z,26.00
2019-04-30T09:04:51.201Z,26.10
2019-04-30T09:05:51.218Z,24.00
2019-04-30T09:06:51.244Z,23.80
2019-04-30T09:07:51.247Z,23.70
2019-04-30T09:08:51.260Z,23.80
2019-04-30T09:09:51.285Z,22.60
2019-04-30T09:10:51.290Z,22.40
2019-04-30T09:11:55.399Z,21.40
2019-04-30T09:12:51.978Z,21.90
2019-04-30T09:13:51.349Z,21.30
2019-04-30T09:14:51.360Z,20.20
2019-04-30T09:15:51.378Z,21.60
2019-04-30T09:16:51.502Z,22.50
2019-04-30T09:18:00.802Z,22.30
2019-04-30T09:18:51.432Z,23.00
2019-04-30T09:19:51.444Z,23.80
2019-04-30T09:20:51.457Z,22.80
2019-04-30T09:21:51.516Z,21.70
2019-04-30T09:22:51.505Z,21.40
2019-04-30T09:23:52.795Z,20.90
2019-04-30T09:24:51.528Z,20.10
2019-04-30T09:26:51.561Z,19.20
2019-04-30T09:27:51.586Z,18.60
2019-04-30T09:28:51.622Z,20.60
2019-04-30T09:29:51.634Z,20.00
2019-04-30T09:30:51.631Z,20.10
2019-04-30T09:31:51.654Z,19.80
2019-04-30T09:32:51.666Z,18.80
2019-04-30T09:33:51.685Z,19.00
2019-04-30T09:34:51.692Z,18.40
2019-04-30T09:35:51.715Z,19.30
2019-04-30T09:36:51.737Z,18.00
2019-04-30T09:37:58.904Z,18.20
2019-04-30T09:38:51.763Z,19.20
2019-04-30T09:39:51.798Z,19.10
2019-04-30T09:40:51.799Z,19.70
2019-04-30T09:41:51.833Z,19.10
2019-04-30T09:42:51.841Z,18.80
2019-04-30T09:43:51.859Z,18.90
2019-04-30T09:44:54.255Z,19.10
2019-04-30T09:45:51.890Z,18.70
2019-04-30T09:46:51.908Z,17.80
2019-04-30T09:48:51.942Z,19.40
2019-04-30T09:49:51.972Z,19.40
2019-04-30T09:50:52.163Z,19.80
2019-04-30T09:51:52.274Z,19.40
2019-04-30T09:52:52.266Z,19.60
2019-04-30T09:53:58.509Z,18.00
2019-04-30T09:54:52.304Z,18.20
2019-04-30T09:55:52.071Z,17.60
2019-04-30T09:56:52.754Z,17.30
2019-04-30T09:57:52.095Z,18.60
2019-04-30T09:58:52.114Z,18.40
2019-04-30T09:59:52.165Z,18.60
2019-04-30T10:00:52.198Z,21.20
2019-04-30T10:01:52.165Z,19.50
2019-04-30T10:02:52.188Z,19.40
2019-04-30T10:03:52.593Z,21.50
2019-04-30T10:04:52.699Z,20.60
2019-04-30T10:05:52.236Z,20.00
2019-04-30T10:06:52.247Z,20.10
2019-04-30T10:07:52.322Z,19.40
2019-04-30T10:08:52.293Z,20.70
2019-04-30T10:09:52.296Z,19.80
2019-04-30T10:10:52.326Z,19.70
2019-04-30T10:11:52.335Z,20.10
2019-04-30T10:12:52.369Z,20.60
2019-04-30T10:13:52.380Z,19.00
2019-04-30T10:14:52.399Z,19.40
2019-04-30T10:15:52.421Z,20.80
2019-04-30T10:16:52.427Z,19.70
2019-04-30T10:17:52.443Z,19.80
2019-04-30T10:18:52.459Z,19.80
2019-04-30T10:19:52.483Z,19.90
2019-04-30T10:20:52.508Z,19.10
2019-04-30T10:21:52.515Z,18.30
2019-04-30T10:22:52.538Z,19.10
2019-04-30T10:23:52.552Z,17.40
2019-04-30T10:24:52.630Z,16.40
2019-04-30T10:25:52.591Z,16.30
2019-04-30T10:26:52.615Z,18.10
2019-04-30T10:27:52.647Z,19.90
2019-04-30T10:28:52.645Z,18.40
2019-04-30T10:29:52.670Z,17.60
2019-04-30T10:30:52.669Z,17.10
2019-04-30T10:31:52.705Z,16.90
2019-04-30T10:32:52.718Z,17.50
2019-04-30T10:33:52.740Z,17.00
2019-04-30T10:34:52.813Z,16.00
2019-04-30T10:35:52.778Z,16.90
2019-04-30T10:36:52.786Z,15.80
2019-04-30T10:37:52.809Z,16.30
2019-04-30T10:38:52.827Z,15.60
2019-04-30T10:39:52.848Z,15.60
2019-04-30T10:40:52.874Z,15.00
2019-04-30T10:41:52.883Z,15.10
2019-04-30T10:42:52.899Z,15.30
2019-04-30T10:43:52.919Z,17.40
2019-04-30T10:44:52.931Z,16.80
2019-04-30T10:45:52.957Z,16.20
2019-04-30T10:46:52.969Z,16.60
2019-04-30T10:47:52.990Z,15.70
2019-04-30T10:48:52.996Z,15.40
2019-04-30T10:49:53.044Z,17.20
2019-04-30T10:50:53.055Z,15.50
2019-04-30T10:51:53.188Z,13.80
2019-04-30T10:52:53.076Z,14.00
2019-04-30T10:53:53.100Z,14.90
2019-04-30T10:54:53.118Z,14.20
2019-04-30T10:55:53.133Z,14.30
2019-04-30T10:56:53.155Z,13.50
2019-04-30T10:57:53.169Z,12.50
2019-04-30T10:58:53.204Z,11.70
2019-04-30T10:59:53.211Z,10.70
2019-04-30T11:00:53.227Z,12.70
2019-04-30T11:01:53.247Z,13.80
2019-04-30T11:02:53.273Z,14.60
2019-04-30T11:03:53.269Z,15.70
2019-04-30T11:04:53.288Z,15.20
2019-04-30T11:05:53.332Z,13.90
2019-04-30T11:06:53.352Z,13.40
2019-04-30T11:07:53.367Z,13.40
2019-04-30T11:08:53.361Z,13.50
2019-04-30T11:09:53.381Z,15.20
2019-04-30T11:10:53.408Z,13.30
2019-04-30T11:11:53.422Z,14.20
2019-04-30T11:12:53.445Z,14.80
2019-04-30T11:13:53.544Z,14.10
2019-04-30T11:14:53.484Z,14.20
2019-04-30T11:15:53.500Z,13.80
2019-04-30T11:16:53.689Z,13.80
2019-04-30T11:17:53.657Z,14.70
2019-04-30T11:18:53.714Z,12.90
2019-04-30T11:19:53.634Z,13.00
2019-04-30T11:20:53.809Z,12.60
2019-04-30T11:21:53.768Z,13.00
2019-04-30T11:22:54.861Z,11.70
2019-04-30T11:23:53.835Z,11.30
2019-04-30T11:24:59.373Z,11.70
2019-04-30T11:25:54.319Z,12.20
2019-04-30T11:26:54.240Z,11.90
2019-04-30T11:27:54.275Z,11.40
2019-04-30T11:28:53.914Z,13.00
2019-04-30T11:30:00.544Z,29.00
2019-04-30T11:30:54.037Z,14.10
2019-04-30T11:31:53.939Z,13.80
2019-04-30T11:32:53.969Z,14.80
2019-04-30T11:33:53.832Z,13.20
2019-04-30T11:34:53.849Z,13.60
2019-04-30T11:36:02.399Z,12.50
2019-04-30T11:36:53.902Z,12.80
2019-04-30T11:37:53.902Z,11.70
2019-04-30T11:38:53.926Z,12.10
2019-04-30T11:39:53.944Z,11.50
2019-04-30T11:40:53.972Z,11.50
2019-04-30T11:41:53.980Z,11.00
2019-04-30T11:42:53.996Z,11.30
2019-04-30T11:43:54.013Z,11.10
2019-04-30T11:44:54.034Z,10.70
2019-04-30T11:45:54.064Z,11.20
2019-04-30T11:46:54.074Z,11.00
2019-04-30T11:47:54.096Z,10.40
2019-04-30T11:48:54.107Z,9.60
2019-04-30T11:49:54.124Z,9.90
2019-04-30T11:50:54.142Z,9.70
2019-04-30T11:51:54.165Z,9.60
2019-04-30T11:53:07.053Z,8.60
2019-04-30T11:53:54.196Z,8.30
2019-04-30T11:54:54.824Z,8.30
2019-04-30T11:55:54.240Z,7.40
2019-04-30T11:56:54.249Z,8.50
2019-04-30T11:57:54.429Z,9.50
2019-04-30T11:58:54.296Z,9.60
2019-04-30T11:59:54.309Z,9.80
2019-04-30T12:00:54.328Z,10.20
2019-04-30T12:01:54.348Z,10.30
2019-04-30T12:02:54.367Z,10.70
2019-04-30T12:03:54.386Z,11.40
2019-04-30T12:04:54.412Z,10.60
2019-04-30T12:05:54.430Z,10.40
2019-04-30T12:06:54.451Z,9.60
2019-04-30T12:07:54.465Z,8.80
2019-04-30T12:08:54.498Z,8.60
2019-04-30T12:09:54.494Z,9.50
2019-04-30T12:10:54.520Z,8.50
2019-04-30T12:11:54.568Z,9.10
2019-04-30T12:12:54.562Z,8.70
2019-04-30T12:13:54.576Z,8.30
2019-04-30T12:14:54.596Z,8.20
2019-04-30T12:15:54.622Z,9.20
2019-04-30T12:16:54.635Z,8.30
2019-04-30T12:17:54.658Z,8.30
2019-04-30T12:18:54.662Z,7.80
2019-04-30T12:19:54.693Z,7.60
2019-04-30T12:20:54.706Z,8.50
2019-04-30T12:21:54.736Z,8.00
2019-04-30T12:22:54.748Z,8.50
2019-04-30T12:23:54.770Z,9.40
2019-04-30T12:25:02.687Z,7.60
2019-04-30T12:25:54.803Z,9.00
2019-04-30T12:26:54.832Z,8.70
2019-04-30T12:27:54.850Z,9.10
2019-04-30T12:28:54.864Z,9.20
2019-04-30T12:29:54.888Z,9.80
2019-04-30T12:30:54.902Z,9.40
2019-04-30T12:31:54.925Z,8.80
2019-04-30T12:32:54.930Z,9.20
2019-04-30T12:33:54.965Z,10.20
2019-04-30T12:34:54.991Z,10.30
2019-04-30T12:35:54.999Z,8.90
2019-04-30T12:36:55.025Z,10.20
2019-04-30T12:37:55.038Z,9.70
2019-04-30T12:38:55.051Z,9.70
2019-04-30T12:39:55.075Z,9.50
2019-04-30T12:40:55.092Z,9.20
2019-04-30T12:41:55.116Z,9.30
2019-04-30T12:42:55.138Z,8.90
2019-04-30T12:43:55.161Z,8.80
2019-04-30T12:44:55.175Z,8.70
2019-04-30T12:46:02.630Z,8.30
2019-04-30T12:46:55.212Z,8.60
2019-04-30T12:47:55.227Z,8.90
2019-04-30T12:48:55.252Z,7.60
2019-04-30T12:49:55.269Z,8.00
2019-04-30T12:50:55.296Z,8.30
2019-04-30T12:51:55.309Z,7.90
2019-04-30T12:52:55.321Z,8.50
2019-04-30T12:53:55.346Z,9.10
2019-04-30T12:54:55.399Z,9.90
2019-04-30T12:55:55.517Z,9.20
2019-04-30T12:56:55.405Z,9.10
2019-04-30T12:57:59.086Z,9.00